Time;durP1;ratioP1;P1;durP2;ratioP2;P2;SDS_P1;SDS_P2;PMS_P1;PMS_P2;Temp;Humidity;BMP_temperature;BMP_pressure;BME280_temperature;BME280_humidity;BME280_pressure;Samples;Min_cycle;Max_cycle;Signal;HPM_P1;HPM_P2
2022/08/16 00:02:33;;;;;;;12.20;10.90;;;;;;;17.48;100.00;99881.84;5027975;28;20069;-78
2022/08/16 00:05:01;;;;;;;15.07;12.02;;;;;;;17.44;100.00;99882.06;5028900;28;20048;-77
2022/08/16 00:07:29;;;;;;;13.45;12.00;;;;;;;17.39;100.00;99876.13;5031966;28;21137;-78
2022/08/16 00:09:58;;;;;;;13.45;11.57;;;;;;;17.38;100.00;99876.22;5036964;28;20418;-77
2022/08/16 00:12:27;;;;;;;13.10;11.52;;;;;;;17.32;100.00;99882.81;5012006;28;20120;-78
2022/08/16 00:15:09;;;;;;;13.82;12.10;;;;;;;17.30;100.00;99874.03;5016271;28;20053;-78
2022/08/16 00:17:37;;;;;;;12.48;11.20;;;;;;;17.30;100.00;99881.16;5003706;28;20037;-78
2022/08/16 00:20:49;;;;;;;14.73;12.75;;;;;;;17.30;100.00;99890.03;5008623;28;20524;-77
2022/08/16 00:23:18;;;;;;;15.00;13.27;;;;;;;17.32;100.00;99897.94;5007973;28;20517;-77
2022/08/16 00:25:59;;;;;;;12.95;11.65;;;;;;;17.30;100.00;99911.41;5012734;28;20061;-78
2022/08/16 00:28:46;;;;;;;14.32;12.77;;;;;;;17.29;100.00;99925.69;5015472;28;20491;-78
2022/08/16 00:31:20;;;;;;;13.23;11.85;;;;;;;17.27;100.00;99935.63;5000120;28;20045;-77
2022/08/16 00:33:50;;;;;;;14.88;12.43;;;;;;;17.24;100.00;99930.47;5013904;28;20044;-77
2022/08/16 00:36:18;;;;;;;13.07;11.68;;;;;;;17.23;100.00;99933.22;5012573;28;20046;-78
2022/08/16 00:38:45;;;;;;;16.30;13.50;;;;;;;17.22;100.00;99931.50;5011506;28;20044;-77
2022/08/16 00:41:13;;;;;;;14.20;12.80;;;;;;;17.19;100.00;99931.69;5001950;28;20503;-78
2022/08/16 00:43:42;;;;;;;17.15;13.00;;;;;;;17.17;100.00;99934.44;4989343;28;20117;-77
2022/08/16 00:46:12;;;;;;;14.23;12.55;;;;;;;17.13;100.00;99928.41;5011821;28;20574;-78
2022/08/16 00:48:59;;;;;;;13.10;11.68;;;;;;;17.12;100.00;99931.19;5004675;28;20042;-77
2022/08/16 00:51:28;;;;;;;17.08;13.02;;;;;;;17.13;100.00;99930.22;5027451;28;20073;-77
2022/08/16 00:53:55;;;;;;;15.00;11.93;;;;;;;17.12;100.00;99934.72;4989819;28;20042;-78
2022/08/16 00:56:26;;;;;;;13.93;12.20;;;;;;;17.16;100.00;99938.06;4973982;28;20039;-79
2022/08/16 00:59:14;;;;;;;14.07;12.57;;;;;;;17.17;100.00;99942.47;5006781;28;20037;-77
2022/08/16 01:01:43;;;;;;;13.93;12.32;;;;;;;17.18;100.00;99954.84;4999317;28;20104;-77
2022/08/16 01:04:10;;;;;;;15.90;13.75;;;;;;;17.19;100.00;99953.03;5006273;28;20038;-77
2022/08/16 01:07:00;;;;;;;16.30;13.70;;;;;;;17.17;100.00;99958.47;5010445;28;20033;-77
2022/08/16 01:09:35;;;;;;;16.30;14.52;;;;;;;17.17;100.00;99958.47;5013035;28;20033;-78
2022/08/16 01:12:05;;;;;;;14.93;12.98;;;;;;;17.15;100.00;99965.69;4988349;28;20076;-78
2022/08/16 01:14:46;;;;;;;16.80;14.07;;;;;;;17.11;100.00;99964.16;4991819;28;20067;-77
2022/08/16 01:17:15;;;;;;;15.48;13.32;;;;;;;17.11;100.00;99972.16;5016513;28;20299;-77
2022/08/16 01:19:46;;;;;;;15.07;13.32;;;;;;;17.09;100.00;99977.59;5012172;28;20677;-77
2022/08/16 01:22:21;;;;;;;14.48;12.98;;;;;;;17.07;100.00;99974.16;5001204;28;20041;-78
2022/08/16 01:25:11;;;;;;;16.02;13.25;;;;;;;17.08;100.00;99977.69;4989764;28;20064;-78
2022/08/16 01:27:43;;;;;;;16.35;12.98;;;;;;;17.09;100.00;99972.25;4999629;28;20040;-77
2022/08/16 01:30:17;;;;;;;17.77;13.88;;;;;;;17.13;100.00;99972.94;5023168;28;20037;-77
2022/08/16 01:32:47;;;;;;;15.73;12.85;;;;;;;17.11;100.00;99970.34;4994438;28;20503;-77
2022/08/16 01:35:45;;;;;;;17.02;12.82;;;;;;;17.14;100.00;99969.31;5004773;28;20121;-77
2022/08/16 01:38:28;;;;;;;16.83;13.07;;;;;;;17.16;100.00;99970.09;5011522;28;20445;-78
2022/08/16 01:41:08;;;;;;;15.00;13.35;;;;;;;17.15;100.00;99968.34;5006270;28;20038;-77
2022/08/16 01:43:37;;;;;;;18.58;14.23;;;;;;;17.14;100.00;99970.16;5009031;28;20057;-77
2022/08/16 01:46:15;;;;;;;15.45;13.27;;;;;;;17.13;100.00;99972.94;5012856;28;20104;-77
2022/08/16 01:49:15;;;;;;;17.55;14.73;;;;;;;17.17;100.00;99979.81;5007761;28;21007;-77
2022/08/16 01:51:46;;;;;;;20.35;15.63;;;;;;;17.18;100.00;99976.22;5004116;28;20060;-78
2022/08/16 01:54:13;;;;;;;17.30;14.32;;;;;;;17.21;100.00;99970.69;5011819;28;20056;-78
2022/08/16 01:56:41;;;;;;;16.35;12.82;;;;;;;17.21;100.00;99969.81;4999937;28;20519;-78
2022/08/16 01:59:11;;;;;;;16.42;13.88;;;;;;;17.20;100.00;99963.63;5000026;28;20133;-78
2022/08/16 02:01:43;;;;;;;;;;;;;;;17.15;100.00;99961.25;5010244;28;20046;-78
2022/08/16 02:04:19;;;;;;;15.65;12.85;;;;;;;17.14;100.00;99975.50;5002852;28;19928;-78
2022/08/16 02:07:09;;;;;;;16.63;12.93;;;;;;;17.12;100.00;99972.06;4984989;28;20074;-78
2022/08/16 02:09:38;;;;;;;13.88;11.63;;;;;;;17.09;100.00;99964.25;5025582;28;20041;-78
2022/08/16 02:12:07;;;;;;;17.52;14.55;;;;;;;17.11;100.00;99961.50;5011730;28;20045;-78
2022/08/16 02:14:54;;;;;;;18.60;14.75;;;;;;;17.15;100.00;99965.69;5006523;28;20045;-78
2022/08/16 02:17:20;;;;;;;16.40;13.73;;;;;;;17.15;100.00;99971.03;5031778;28;20116;-78
2022/08/16 02:19:50;;;;;;;17.60;14.43;;;;;;;17.16;100.00;99967.44;5014122;28;20091;-78
2022/08/16 02:22:27;;;;;;;19.75;16.38;;;;;;;17.16;100.00;99970.09;5008655;28;20037;-78
2022/08/16 02:25:05;;;;;;;19.02;14.73;;;;;;;17.14;100.00;99967.50;5004618;28;20046;-78
2022/08/16 02:27:35;;;;;;;;;;;;;;;17.13;100.00;99962.25;5009927;28;20033;-78
2022/08/16 02:30:05;;;;;;;17.98;15.30;;;;;;;17.10;100.00;99970.47;4979068;28;19992;-78
2022/08/16 02:32:33;;;;;;;20.75;16.13;;;;;;;17.11;100.00;99972.16;4992546;28;20041;-78
2022/08/16 02:35:18;;;;;;;21.00;16.10;;;;;;;17.10;100.00;99979.31;5012451;28;20132;-78
2022/08/16 02:37:49;;;;;;;19.50;16.08;;;;;;;17.09;100.00;99987.41;4994538;28;20030;-78
2022/08/16 02:40:19;;;;;;;19.27;15.10;;;;;;;17.04;100.00;99982.34;5017463;28;20467;-78
2022/08/16 02:42:47;;;;;;;19.98;15.25;;;;;;;17.01;100.00;99979.00;4990926;28;20121;-78
2022/08/16 02:45:18;;;;;;;20.35;16.05;;;;;;;16.98;100.00;99973.81;5012804;28;20042;-78
2022/08/16 02:47:45;;;;;;;19.25;14.27;;;;;;;16.99;100.00;99980.91;4997184;28;20439;-78
2022/08/16 02:50:26;;;;;;;20.55;15.75;;;;;;;16.99;100.00;99972.91;4996170;28;20038;-78
2022/08/16 02:53:13;;;;;;;19.60;15.77;;;;;;;16.96;100.00;99968.56;5028124;28;20131;-78
2022/08/16 02:55:44;;;;;;;17.25;13.98;;;;;;;16.96;100.00;99968.56;4996682;28;20451;-79
2022/08/16 02:58:17;;;;;;;21.55;16.85;;;;;;;16.98;100.00;99965.81;5008851;28;20034;-78
2022/08/16 03:00:43;;;;;;;16.98;13.52;;;;;;;16.97;100.00;99972.09;4998110;28;20041;-81
2022/08/16 03:03:16;;;;;;;17.33;14.63;;;;;;;16.94;100.00;99966.94;5022041;28;20052;-78
2022/08/16 03:05:46;;;;;;;20.38;15.15;;;;;;;16.93;100.00;99960.75;4995785;28;20052;-78
2022/08/16 03:08:18;;;;;;;16.13;13.00;;;;;;;16.93;100.00;99962.56;5032826;28;20395;-80
2022/08/16 03:11:05;;;;;;;18.27;14.68;;;;;;;16.89;100.00;99964.53;5003207;28;20101;-79
2022/08/16 03:13:44;;;;;;;15.30;12.65;;;;;;;16.84;100.00;99967.47;5014887;28;20122;-78
2022/08/16 03:16:13;;;;;;;15.65;13.30;;;;;;;16.81;100.00;99966.78;5011698;28;20066;-78
2022/08/16 03:19:00;;;;;;;13.93;11.15;;;;;;;16.79;100.00;99966.88;5003897;28;20041;-79
2022/08/16 03:21:28;;;;;;;13.25;11.90;;;;;;;16.80;100.00;99970.41;5021658;28;20042;-79
2022/08/16 03:24:07;;;;;;;15.30;11.80;;;;;;;16.79;100.00;99966.88;5022133;28;20052;-78
2022/08/16 03:26:54;;;;;;;14.98;13.40;;;;;;;16.80;100.00;99971.25;4996012;28;20042;-81
2022/08/16 03:29:26;;;;;;;15.27;12.50;;;;;;;16.82;100.00;99973.88;5013740;28;20042;-80
2022/08/16 03:31:57;;;;;;;15.20;12.88;;;;;;;16.82;100.00;99964.06;5017803;28;20041;-80
2022/08/16 03:34:26;;;;;;;16.05;13.57;;;;;;;16.83;100.00;99971.09;5012284;28;20486;-80
2022/08/16 03:36:54;;;;;;;13.73;12.20;;;;;;;16.84;100.00;99977.31;5007389;28;20043;-80
2022/08/16 03:39:21;;;;;;;15.07;12.90;;;;;;;16.82;100.00;99979.19;5008412;28;20501;-81
2022/08/16 03:41:49;;;;;;;15.68;12.85;;;;;;;16.78;100.00;99977.63;4990504;28;20062;-81
2022/08/16 03:44:25;;;;;;;16.17;13.45;;;;;;;16.77;100.00;99973.25;5015421;28;20054;-79
2022/08/16 03:47:11;;;;;;;16.30;13.55;;;;;;;16.73;100.00;99966.34;4999639;28;20491;-79
2022/08/16 03:49:46;;;;;;;17.13;12.88;;;;;;;16.70;100.00;99975.41;5026067;28;20034;-81
2022/08/16 03:52:18;;;;;;;14.38;12.60;;;;;;;16.68;100.00;99976.41;5017651;28;20042;-80
2022/08/16 03:54:47;;;;;;;15.32;13.32;;;;;;;16.65;100.00;99982.78;4999246;28;20129;-79
2022/08/16 03:57:24;;;;;;;13.68;11.02;;;;;;;16.62;100.00;99985.59;5018609;28;20061;-81
2022/08/16 04:00:16;;;;;;;15.35;12.40;;;;;;;16.59;100.00;99991.97;5002821;28;20053;-81
2022/08/16 04:03:06;;;;;;;17.13;13.20;;;;;;;16.57;100.00;99985.88;4986478;28;20314;-80
2022/08/16 04:05:40;;;;;;;14.50;12.63;;;;;;;16.56;100.00;99985.94;5012905;28;20076;-79
2022/08/16 04:08:09;;;;;;;16.70;13.18;;;;;;;16.54;100.00;99990.50;5007792;28;20038;-78
2022/08/16 04:10:51;;;;;;;15.77;12.55;;;;;;;16.50;100.00;99989.84;5005354;28;20045;-78
2022/08/16 04:13:17;;;;;;;15.93;12.27;;;;;;;16.48;100.00;99996.16;4990140;28;20041;-78
2022/08/16 04:16:05;;;;;;;15.23;12.80;;;;;;;16.49;100.00;99984.59;5011867;28;20037;-78
2022/08/16 04:18:37;;;;;;;16.92;13.30;;;;;;;16.52;100.00;99987.94;4973492;28;20038;-78
2022/08/16 04:21:04;;;;;;;16.13;13.55;;;;;;;16.52;100.00;99989.75;4996585;28;20089;-78
2022/08/16 04:23:31;;;;;;;16.23;13.60;;;;;;;16.55;100.00;99987.75;4996096;28;20042;-77
2022/08/16 04:25:58;;;;;;;17.38;14.13;;;;;;;16.52;100.00;99992.41;4996851;28;20045;-78
2022/08/16 04:28:27;;;;;;;13.50;11.57;;;;;;;16.51;100.00;99991.56;5007125;28;20042;-77
2022/08/16 04:31:14;;;;;;;14.63;12.95;;;;;;;16.52;100.00;99990.59;5011081;28;20037;-77
2022/08/16 04:33:43;;;;;;;15.95;13.60;;;;;;;16.54;100.00;99991.38;5007037;28;20066;-78
2022/08/16 04:36:16;;;;;;;;;;;;;;;16.54;100.00;100003.84;4999960;28;20056;-78
2022/08/16 04:38:46;;;;;;;12.88;10.93;;;;;;;16.55;100.00;100005.56;4996951;28;20020;-78
2022/08/16 04:41:16;;;;;;;13.20;11.15;;;;;;;16.56;100.00;100009.94;5014371;28;21549;-79
2022/08/16 04:43:43;;;;;;;14.15;12.57;;;;;;;16.59;100.00;100009.78;5016384;28;20133;-78
2022/08/16 04:46:15;;;;;;;14.05;11.05;;;;;;;16.58;100.00;100024.06;4985414;28;20584;-79
2022/08/16 04:49:02;;;;;;;12.70;11.40;;;;;;;16.61;100.00;100018.56;5005060;28;20041;-79
2022/08/16 04:51:30;;;;;;;13.77;11.15;;;;;;;16.61;100.00;100021.22;4980651;28;20064;-78
2022/08/16 04:54:01;;;;;;;13.30;10.95;;;;;;;16.67;100.00;100025.38;4979485;28;20045;-78
2022/08/16 04:56:29;;;;;;;13.95;11.98;;;;;;;16.71;100.00;100019.78;5020028;28;20037;-78
2022/08/16 04:58:56;;;;;;;13.13;11.60;;;;;;;16.76;100.00;100025.75;5027186;28;20049;-78
2022/08/16 05:01:23;;;;;;;13.07;11.68;;;;;;;16.80;100.00;100029.94;4998667;28;20046;-79
2022/08/16 05:04:10;;;;;;;14.32;11.90;;;;;;;16.86;100.00;100031.41;5005706;28;20112;-78
2022/08/16 05:06:45;;;;;;;15.43;13.10;;;;;;;16.91;100.00;100029.38;5014357;28;20186;-79
2022/08/16 05:09:13;;;;;;;14.07;11.98;;;;;;;16.96;100.00;100031.75;4999939;28;20538;-78
2022/08/16 05:11:42;;;;;;;12.65;11.00;;;;;;;17.03;100.00;100033.13;5015857;28;20042;-79
2022/08/16 05:14:08;;;;;;;13.93;11.90;;;;;;;17.06;100.00;100028.47;5001686;28;20101;-78
2022/08/16 05:16:35;;;;;;;16.38;13.98;;;;;;;17.13;100.00;100023.66;4996739;28;20053;-78
2022/08/16 05:19:03;;;;;;;15.05;13.45;;;;;;;17.16;100.00;100023.50;4993375;28;20038;-78
2022/08/16 05:21:37;;;;;;;13.00;11.48;;;;;;;17.18;100.00;100032.25;5002596;28;20034;-78
2022/08/16 05:24:06;;;;;;;13.57;12.00;;;;;;;17.19;100.00;100027.78;5012476;28;20073;-79
2022/08/16 05:26:36;;;;;;;12.23;10.95;;;;;;;17.23;100.00;100037.31;5002004;28;20037;-79
2022/08/16 05:29:08;;;;;;;13.32;12.02;;;;;;;17.32;100.00;100040.34;5014017;28;20073;-79
2022/08/16 05:31:40;;;;;;;14.20;12.70;;;;;;;17.42;100.00;100032.66;5005245;28;20465;-79
2022/08/16 05:34:20;;;;;;;14.10;12.15;;;;;;;17.51;100.00;100034.78;4991657;28;20078;-79
2022/08/16 05:36:48;;;;;;;12.63;11.32;;;;;;;17.56;100.00;100040.69;5010128;28;20514;-79
2022/08/16 05:39:17;;;;;;;12.65;11.35;;;;;;;17.65;100.00;100041.94;5018355;28;20099;-79
2022/08/16 05:41:46;;;;;;;12.88;11.30;;;;;;;17.71;100.00;100044.31;5019961;28;20099;-79
2022/08/16 05:44:18;;;;;;;12.80;11.50;;;;;;;17.72;100.00;100038.84;4998316;28;20069;-78
2022/08/16 05:46:55;;;;;;;14.82;13.23;;;;;;;17.74;100.00;100036.13;5022351;28;20038;-78
2022/08/16 05:49:23;;;;;;;13.45;12.02;;;;;;;17.78;100.00;100040.31;5010173;28;20041;-79
2022/08/16 05:51:51;;;;;;;13.98;11.57;;;;;;;17.85;100.00;100039.00;5020645;28;20120;-78
2022/08/16 05:54:18;;;;;;;14.18;12.68;;;;;;;17.97;100.00;100048.06;5000705;28;20041;-79
2022/08/16 05:56:51;;;;;;;15.02;13.50;;;;;;;18.52;100.00;100050.88;5002016;28;20052;-78
2022/08/16 05:59:18;;;;;;;16.55;13.60;;;;;;;19.34;100.00;100047.38;4991904;28;20609;-79
2022/08/16 06:01:49;;;;;;;14.15;12.52;;;;;;;19.90;100.00;100044.50;5014312;28;20475;-78
2022/08/16 06:04:22;;;;;;;13.48;12.10;;;;;;;20.45;100.00;100038.88;5005134;28;20502;-79
2022/08/16 06:07:04;;;;;;;12.48;11.18;;;;;;;20.95;100.00;100037.03;5033781;28;20097;-79
2022/08/16 06:09:34;;;;;;;14.02;12.70;;;;;;;20.88;100.00;100042.97;5026975;28;20595;-79
2022/08/16 06:12:14;;;;;;;12.98;11.68;;;;;;;20.71;100.00;100052.25;5022064;28;20105;-79
2022/08/16 06:14:57;;;;;;;;;;;;;;;20.69;100.00;100040.78;5029711;28;20113;-80
2022/08/16 06:17:26;;;;;;;14.07;12.57;;;;;;;20.77;100.00;100052.66;5014700;28;19909;-79
2022/08/16 06:20:10;;;;;;;14.90;13.30;;;;;;;20.78;100.00;100053.53;5003743;28;20042;-79
2022/08/16 06:22:38;;;;;;;16.35;14.60;;;;;;;21.44;100.00;100057.63;5053217;22;20045;-77
2022/08/16 06:25:05;;;;;;;13.93;12.52;;;;;;;22.78;100.00;100059.69;5049168;28;20548;-77
2022/08/16 06:27:32;;;;;;;12.90;11.52;;;;;;;23.93;100.00;100059.16;5041123;28;20125;-78
2022/08/16 06:30:07;;;;;;;14.13;12.63;;;;;;;24.68;94.80;100061.59;5026607;28;20046;-77
2022/08/16 06:32:33;;;;;;;12.38;11.07;;;;;;;25.27;86.08;100066.19;5010047;28;20037;-77
2022/08/16 06:35:09;;;;;;;12.75;11.38;;;;;;;25.76;87.68;100075.22;5017249;28;20037;-77
2022/08/16 06:37:36;;;;;;;12.88;11.57;;;;;;;25.99;83.14;100077.63;5012518;28;20041;-77
2022/08/16 06:40:04;;;;;;;12.15;10.95;;;;;;;25.93;80.89;100075.50;5027595;28;20076;-76
2022/08/16 06:42:40;;;;;;;11.43;10.23;;;;;;;26.51;81.25;100080.81;5022222;28;20037;-79
2022/08/16 06:45:14;;;;;;;11.95;10.75;;;;;;;26.48;79.10;100084.66;5003401;28;20083;-78
2022/08/16 06:47:40;;;;;;;11.00;10.00;;;;;;;26.38;81.46;100095.53;5019107;28;20034;-78
2022/08/16 06:50:20;;;;;;;12.45;10.75;;;;;;;25.67;84.55;100084.16;5017206;28;20041;-78
2022/08/16 06:52:54;;;;;;;13.85;10.63;;;;;;;25.32;87.50;100087.41;5008888;28;20155;-78
2022/08/16 06:55:42;;;;;;;12.05;10.93;;;;;;;24.99;88.85;100085.88;5030413;28;20037;-78
2022/08/16 06:58:09;;;;;;;12.02;10.93;;;;;;;24.64;89.59;100087.16;5015501;28;20383;-78
2022/08/16 07:00:48;;;;;;;12.57;11.43;;;;;;;24.57;95.55;100091.41;5015862;28;20030;-78
2022/08/16 07:03:15;;;;;;;12.15;10.93;;;;;;;24.47;94.03;100082.41;5016884;28;20502;-79
2022/08/16 07:05:55;;;;;;;11.20;10.20;;;;;;;24.42;94.81;100092.72;5031133;28;20072;-77
2022/08/16 07:08:26;;;;;;;11.60;10.57;;;;;;;24.47;97.99;100095.91;5022178;28;20108;-79
2022/08/16 07:10:54;;;;;;;12.25;11.10;;;;;;;24.65;97.70;100094.28;5016616;28;20123;-78
2022/08/16 07:13:21;;;;;;;12.90;11.60;;;;;;;24.88;97.75;100103.03;5030833;28;20511;-79
2022/08/16 07:16:13;;;;;;;11.65;10.45;;;;;;;25.19;96.92;100113.84;5010805;28;21256;-77
2022/08/16 07:18:43;;;;;;;15.68;12.43;;;;;;;25.34;93.22;100112.44;5017015;28;20037;-78
2022/08/16 07:21:27;;;;;;;12.07;10.82;;;;;;;25.40;92.39;100102.94;5015287;28;20156;-78
2022/08/16 07:24:16;;;;;;;11.77;10.68;;;;;;;25.38;94.88;100104.91;4997782;28;20080;-78
2022/08/16 07:26:57;;;;;;;13.07;11.60;;;;;;;25.47;91.07;100113.03;5010466;28;20055;-78
2022/08/16 07:29:27;;;;;;;13.25;11.95;;;;;;;25.49;91.51;100113.75;5020739;28;20033;-79
2022/08/16 07:31:58;;;;;;;12.15;10.95;;;;;;;25.64;90.38;100114.19;4998957;28;20046;-79
2022/08/16 07:34:27;;;;;;;12.38;11.13;;;;;;;25.89;90.16;100115.50;5024027;28;20105;-79
2022/08/16 07:37:08;;;;;;;13.10;11.80;;;;;;;25.75;87.25;100121.38;5011713;28;20045;-79
2022/08/16 07:39:35;;;;;;;15.57;11.68;;;;;;;25.80;85.82;100124.47;5010186;28;20047;-79
2022/08/16 07:42:09;;;;;;;12.15;10.95;;;;;;;25.84;86.42;100125.94;5005789;28;20087;-79
2022/08/16 07:44:51;;;;;;;11.63;10.43;;;;;;;26.03;89.27;100123.19;5032399;28;20140;-79
2022/08/16 07:47:19;;;;;;;13.15;10.70;;;;;;;26.30;83.67;100130.56;5001251;28;20037;-79
2022/08/16 07:49:56;;;;;;;13.55;12.25;;;;;;;26.46;83.87;100134.56;5025566;28;20045;-80
2022/08/16 07:52:24;;;;;;;12.85;11.23;;;;;;;26.44;77.42;100134.72;4999621;28;20179;-79
2022/08/16 07:54:56;;;;;;;12.05;10.95;;;;;;;26.71;83.10;100130.38;5014052;28;20046;-79
2022/08/16 07:57:24;;;;;;;12.00;10.80;;;;;;;26.38;78.91;100124.47;4992249;28;20076;-79
2022/08/16 07:59:51;;;;;;;12.52;11.43;;;;;;;26.57;80.95;100126.25;5022999;28;20245;-80
2022/08/16 08:02:18;;;;;;;12.07;10.82;;;;;;;26.72;83.05;100124.78;4993994;28;20046;-80
2022/08/16 08:04:47;;;;;;;11.45;10.45;;;;;;;26.76;82.33;100131.63;5019776;28;20455;-80
2022/08/16 08:07:14;;;;;;;12.68;10.57;;;;;;;26.77;78.86;100130.63;5017628;28;20041;-80
2022/08/16 08:09:42;;;;;;;11.85;10.05;;;;;;;26.93;80.12;100130.00;4998615;28;20057;-79
2022/08/16 08:12:10;;;;;;;15.02;11.77;;;;;;;26.92;77.73;100131.88;5011070;28;20041;-79
2022/08/16 08:14:58;;;;;;;11.95;10.70;;;;;;;26.91;78.86;100129.31;5046101;28;20416;-80
2022/08/16 08:17:28;;;;;;;13.05;10.95;;;;;;;26.86;72.80;100137.88;5019514;28;20049;-80
2022/08/16 08:20:12;;;;;;;10.55;9.55;;;;;;;26.84;76.69;100141.75;5001130;28;20038;-78
2022/08/16 08:22:57;;;;;;;10.82;9.82;;;;;;;26.98;75.09;100145.81;5019947;28;20045;-78
2022/08/16 08:25:28;;;;;;;12.80;9.82;;;;;;;27.07;75.09;100142.22;5012776;28;20688;-77
2022/08/16 08:28:16;;;;;;;11.10;9.98;;;;;;;27.05;73.72;100145.09;5028908;28;20041;-78
2022/08/16 08:30:42;;;;;;;10.20;9.20;;;;;;;26.90;71.54;100146.53;5011327;28;20218;-78
2022/08/16 08:33:26;;;;;;;10.43;9.07;;;;;;;27.08;76.80;100141.25;5031748;28;20041;-78
2022/08/16 08:35:55;;;;;;;11.82;9.20;;;;;;;27.11;74.53;100144.50;5031146;28;20037;-78
2022/08/16 08:38:29;;;;;;;10.45;9.45;;;;;;;27.21;70.55;100141.75;5003265;28;20505;-79
2022/08/16 08:41:11;;;;;;;10.15;9.18;;;;;;;27.13;71.02;100133.50;5014034;28;20541;-78
2022/08/16 08:43:38;;;;;;;9.63;8.70;;;;;;;27.03;71.95;100129.97;5030681;28;20418;-79
2022/08/16 08:46:07;;;;;;;9.77;8.85;;;;;;;27.16;72.82;100133.22;5022494;28;20307;-78
2022/08/16 08:48:45;;;;;;;9.48;8.63;;;;;;;27.32;69.08;100138.81;4996120;28;20479;-80
2022/08/16 08:51:27;;;;;;;10.05;9.07;;;;;;;27.39;70.48;100145.34;5025674;28;20045;-78
2022/08/16 08:54:03;;;;;;;10.68;9.68;;;;;;;27.58;68.55;100149.81;4997270;28;20077;-78
2022/08/16 08:56:36;;;;;;;9.68;8.77;;;;;;;27.88;64.66;100145.03;4998904;28;20128;-80
2022/08/16 08:59:12;;;;;;;9.77;8.88;;;;;;;27.95;65.85;100146.13;5019623;28;20080;-79
2022/08/16 09:01:46;;;;;;;9.52;8.60;;;;;;;28.20;62.71;100148.06;5028498;28;20049;-77
2022/08/16 09:04:27;;;;;;;8.55;7.80;;;;;;;28.46;63.63;100147.25;5035053;28;20342;-78
2022/08/16 09:06:55;;;;;;;8.52;7.72;;;;;;;28.68;62.01;100137.72;5019684;28;20079;-79
2022/08/16 09:09:24;;;;;;;8.35;7.63;;;;;;;28.70;58.98;100146.56;5014094;28;20056;-79
2022/08/16 09:12:00;;;;;;;10.77;7.75;;;;;;;28.83;56.11;100144.25;5029496;28;20477;-78
2022/08/16 09:14:34;;;;;;;8.95;8.15;;;;;;;28.82;55.93;100145.28;5019414;28;20041;-77
2022/08/16 09:17:01;;;;;;;7.72;7.03;;;;;;;28.86;55.22;100147.53;5015085;28;20414;-79
2022/08/16 09:19:40;;;;;;;9.68;7.15;;;;;;;28.79;56.33;100146.44;5008486;28;20053;-79
2022/08/16 09:22:08;;;;;;;8.93;7.38;;;;;;;28.90;54.17;100144.50;5011856;28;20068;-78
2022/08/16 09:24:47;;;;;;;9.75;8.75;;;;;;;29.11;55.32;100148.53;5011932;28;20054;-79
2022/08/16 09:27:23;;;;;;;9.70;8.07;;;;;;;29.28;52.69;100145.88;5013976;28;20422;-78
2022/08/16 09:29:51;;;;;;;8.07;7.38;;;;;;;29.21;52.73;100147.53;5013277;28;20038;-79
2022/08/16 09:32:26;;;;;;;7.65;6.95;;;;;;;29.35;53.64;100141.47;5038699;28;20121;-80
2022/08/16 09:34:58;;;;;;;8.18;7.38;;;;;;;29.63;53.79;100151.09;5013781;28;20257;-80
2022/08/16 09:37:29;;;;;;;7.50;6.90;;;;;;;29.55;49.98;100140.19;5033796;28;20041;-80
2022/08/16 09:40:04;;;;;;;8.18;7.38;;;;;;;29.95;52.04;100141.28;5017829;28;20395;-80
2022/08/16 09:42:52;;;;;;;8.70;7.80;;;;;;;29.94;50.14;100147.75;5031120;28;20410;-80
2022/08/16 09:45:27;;;;;;;8.40;7.60;;;;;;;29.93;50.55;100155.09;5013961;28;20038;-79
2022/08/16 09:47:55;;;;;;;7.85;7.25;;;;;;;30.03;52.26;100154.91;5046934;28;20099;-79
2022/08/16 09:50:28;;;;;;;7.68;6.88;;;;;;;29.70;49.25;100149.44;5024810;28;20056;-78
2022/08/16 09:53:15;;;;;;;7.28;6.68;;;;;;;30.02;50.64;100153.22;5018271;28;20049;-78
2022/08/16 09:55:45;;;;;;;7.45;6.82;;;;;;;30.05;50.25;100157.47;5006892;28;20265;-79
2022/08/16 09:58:17;;;;;;;;;;;;;;;30.33;50.70;100152.56;5024029;28;20133;-77
2022/08/16 10:01:03;;;;;;;7.70;6.97;;;;;;;30.58;50.00;100154.22;5013311;28;20370;-79
2022/08/16 10:03:30;;;;;;;7.88;6.72;;;;;;;30.74;50.31;100162.41;5012370;28;20502;-78
2022/08/16 10:05:58;;;;;;;8.15;7.45;;;;;;;30.89;47.77;100150.78;5022852;28;20065;-78
2022/08/16 10:08:26;;;;;;;7.65;6.95;;;;;;;30.99;48.67;100154.16;5010101;28;20046;-79
2022/08/16 10:13:54;;;;;;;41.60;37.88;;;;;;;31.03;48.46;100155.53;4991292;28;20076;-78
2022/08/16 10:16:21;;;;;;;356.92;323.38;;;;;;;31.16;47.97;100144.03;5040428;28;20041;-79
2022/08/16 10:18:49;;;;;;;36.55;32.75;;;;;;;30.98;47.77;100147.00;5006967;28;20045;-78
2022/08/16 10:21:32;;;;;;;9.88;8.93;;;;;;;31.23;47.78;100143.19;5027027;28;20037;-78
2022/08/16 10:24:00;;;;;;;9.38;8.48;;;;;;;31.54;48.37;100148.66;5024387;28;20033;-79
2022/08/16 10:26:28;;;;;;;7.55;6.95;;;;;;;31.54;46.36;100148.66;5008449;28;20041;-78
2022/08/16 10:29:16;;;;;;;7.80;6.97;;;;;;;31.49;45.91;100145.63;5013891;28;20029;-79
2022/08/16 10:31:46;;;;;;;8.43;7.63;;;;;;;31.31;45.95;100150.50;5010524;28;20050;-78
2022/08/16 10:34:20;;;;;;;7.80;7.10;;;;;;;31.36;46.14;100143.47;5011421;28;20448;-78
2022/08/16 10:36:59;;;;;;;8.25;7.55;;;;;;;31.51;46.83;100148.16;5005435;28;20042;-79
2022/08/16 10:39:26;;;;;;;7.13;6.57;;;;;;;31.76;47.00;100148.84;5019012;28;20040;-79
2022/08/16 10:42:08;;;;;;;6.50;5.97;;;;;;;31.69;41.44;100154.19;5013861;28;20045;-78
2022/08/16 10:44:35;;;;;;;8.02;7.32;;;;;;;31.41;45.59;100147.53;4992746;28;20038;-78
2022/08/16 10:47:02;;;;;;;7.03;6.32;;;;;;;31.29;46.10;100149.81;5022715;28;20037;-77
2022/08/16 10:49:29;;;;;;;7.28;6.68;;;;;;;30.72;45.64;100156.28;5023941;28;20183;-79
2022/08/16 10:51:57;;;;;;;7.97;7.05;;;;;;;30.10;46.80;100152.38;5007509;28;20561;-79
2022/08/16 10:54:44;;;;;;;8.10;7.15;;;;;;;30.36;48.33;100157.69;5026183;28;20045;-79
2022/08/16 10:57:31;;;;;;;7.85;7.07;;;;;;;30.77;46.90;100159.34;5014603;28;20033;-78
2022/08/16 10:59:59;;;;;;;7.80;7.10;;;;;;;31.02;46.40;100156.53;5028298;28;20030;-79
2022/08/16 11:02:27;;;;;;;8.25;6.78;;;;;;;31.22;45.73;100155.13;5010626;28;20675;-77
2022/08/16 11:05:16;;;;;;;6.90;6.30;;;;;;;30.65;44.65;100151.66;5009344;28;20042;-80
2022/08/16 11:07:46;;;;;;;7.40;6.60;;;;;;;30.61;43.72;100153.06;5006034;28;20045;-78
2022/08/16 11:10:33;;;;;;;6.80;6.13;;;;;;;30.29;47.79;100156.66;5030991;28;20160;-78
2022/08/16 11:13:22;;;;;;;7.53;6.82;;;;;;;29.97;49.18;100156.44;5043658;28;20041;-81
2022/08/16 11:16:09;;;;;;;7.13;6.30;;;;;;;30.30;47.84;100151.03;4996307;28;20121;-79
2022/08/16 11:18:56;;;;;;;7.28;6.57;;;;;;;30.82;47.20;100156.09;5014449;28;20045;-78
2022/08/16 11:21:37;;;;;;;7.68;6.80;;;;;;;31.01;45.00;100157.56;5011189;28;20037;-79
2022/08/16 11:24:25;;;;;;;7.43;6.82;;;;;;;31.43;44.26;100157.25;5012647;28;20072;-78
2022/08/16 11:27:09;;;;;;;7.00;6.40;;;;;;;31.96;44.29;100158.34;5030237;28;20046;-78
2022/08/16 11:29:54;;;;;;;7.15;6.55;;;;;;;32.06;42.76;100147.16;5035079;28;20038;-79
2022/08/16 11:32:24;;;;;;;8.05;7.35;;;;;;;31.71;41.82;100163.06;5009063;28;20045;-78
2022/08/16 11:35:04;;;;;;;8.65;7.85;;;;;;;31.44;43.93;100161.66;5043774;28;20045;-78
2022/08/16 11:37:44;;;;;;;7.83;7.13;;;;;;;31.23;44.88;100154.09;5014147;28;20090;-78
2022/08/16 11:40:41;;;;;;;7.57;6.80;;;;;;;30.96;44.46;100163.56;4996340;28;20076;-78
2022/08/16 11:43:11;;;;;;;7.95;7.25;;;;;;;30.69;42.82;100170.28;5027318;28;20046;-78
2022/08/16 11:45:43;;;;;;;7.37;6.63;;;;;;;31.08;44.82;100158.56;5025100;28;20052;-80
2022/08/16 11:48:20;;;;;;;7.63;7.03;;;;;;;31.41;44.17;100164.78;5019758;28;20052;-79
2022/08/16 11:50:47;;;;;;;8.13;7.43;;;;;;;31.56;42.28;100163.00;5004303;28;20041;-78